sensor_id;sensor_type;location;lat;lon;timestamp;temperature;humidity
17954;DHT22;9102;53.548;9.926;2022-09-20T00:00:14;10.00;99.90
17954;DHT22;9102;53.548;9.926;2022-09-20T00:02:41;9.90;99.90
17954;DHT22;9102;53.548;9.926;2022-09-20T00:05:08;9.90;99.90
17954;DHT22;9102;53.548;9.926;2022-09-20T00:07:35;9.90;99.90
17954;DHT22;9102;53.548;9.926;2022-09-20T00:10:02;9.80;99.90
17954;DHT22;9102;53.548;9.926;2022-09-20T00:12:29;9.90;99.90
17954;DHT22;9102;53.548;9.926;2022-09-20T00:14:57;9.80;99.90
17954;DHT22;9102;53.548;9.926;2022-09-20T00:17:24;9.80;99.90
17954;DHT22;9102;53.548;9.926;2022-09-20T00:19:51;9.80;99.90
17954;DHT22;9102;53.548;9.926;2022-09-20T00:22:17;9.80;99.90
17954;DHT22;9102;53.548;9.926;2022-09-20T00:24:44;9.80;99.90
17954;DHT22;9102;53.548;9.926;2022-09-20T00:27:11;9.80;99.90
17954;DHT22;9102;53.548;9.926;2022-09-20T00:29:38;9.80;99.90
17954;DHT22;9102;53.548;9.926;2022-09-20T00:32:06;9.80;99.90
17954;DHT22;9102;53.548;9.926;2022-09-20T00:34:33;9.70;99.90
17954;DHT22;9102;53.548;9.926;2022-09-20T00:37:17;9.80;99.90
17954;DHT22;9102;53.548;9.926;2022-09-20T00:39:44;9.70;99.90
17954;DHT22;9102;53.548;9.926;2022-09-20T00:42:13;9.70;99.90
17954;DHT22;9102;53.548;9.926;2022-09-20T00:44:42;9.70;99.90
17954;DHT22;9102;53.548;9.926;2022-09-20T00:47:17;9.70;99.90
17954;DHT22;9102;53.548;9.926;2022-09-20T00:49:45;9.70;99.90
17954;DHT22;9102;53.548;9.926;2022-09-20T00:52:12;9.70;99.90
17954;DHT22;9102;53.548;9.926;2022-09-20T00:54:40;9.70;99.90
17954;DHT22;9102;53.548;9.926;2022-09-20T00:57:07;9.70;99.90
17954;DHT22;9102;53.548;9.926;2022-09-20T00:59:36;9.60;99.90
17954;DHT22;9102;53.548;9.926;2022-09-20T01:02:09;9.60;99.90
17954;DHT22;9102;53.548;9.926;2022-09-20T01:04:40;9.60;99.90
17954;DHT22;9102;53.548;9.926;2022-09-20T01:07:09;9.60;99.90
17954;DHT22;9102;53.548;9.926;2022-09-20T01:09:36;9.60;99.90
17954;DHT22;9102;53.548;9.926;2022-09-20T01:12:06;9.60;99.90
17954;DHT22;9102;53.548;9.926;2022-09-20T01:14:35;9.60;99.90
17954;DHT22;9102;53.548;9.926;2022-09-20T01:17:03;9.60;99.90
17954;DHT22;9102;53.548;9.926;2022-09-20T01:19:36;9.60;99.90
17954;DHT22;9102;53.548;9.926;2022-09-20T01:22:20;9.50;99.90
17954;DHT22;9102;53.548;9.926;2022-09-20T01:24:53;9.70;99.90
17954;DHT22;9102;53.548;9.926;2022-09-20T01:27:36;9.60;99.90
17954;DHT22;9102;53.548;9.926;2022-09-20T01:30:06;9.70;99.90
17954;DHT22;9102;53.548;9.926;2022-09-20T01:32:43;9.60;99.90
17954;DHT22;9102;53.548;9.926;2022-09-20T01:35:11;9.60;99.90
17954;DHT22;9102;53.548;9.926;2022-09-20T01:37:48;9.60;99.90
17954;DHT22;9102;53.548;9.926;2022-09-20T01:40:25;9.60;99.90
17954;DHT22;9102;53.548;9.926;2022-09-20T01:43:00;9.60;99.90
17954;DHT22;9102;53.548;9.926;2022-09-20T01:48:58;9.60;99.90
17954;DHT22;9102;53.548;9.926;2022-09-20T01:51:43;9.60;99.90
17954;DHT22;9102;53.548;9.926;2022-09-20T01:54:47;9.70;99.90
17954;DHT22;9102;53.548;9.926;2022-09-20T01:58:03;9.60;99.90
17954;DHT22;9102;53.548;9.926;2022-09-20T02:00:43;9.60;99.90
17954;DHT22;9102;53.548;9.926;2022-09-20T02:06:23;9.60;99.90
17954;DHT22;9102;53.548;9.926;2022-09-20T02:09:13;9.50;99.90
17954;DHT22;9102;53.548;9.926;2022-09-20T02:15:02;9.50;99.90
17954;DHT22;9102;53.548;9.926;2022-09-20T02:17:36;9.50;99.90
17954;DHT22;9102;53.548;9.926;2022-09-20T02:20:17;9.50;99.90
17954;DHT22;9102;53.548;9.926;2022-09-20T02:22:58;9.50;99.90
17954;DHT22;9102;53.548;9.926;2022-09-20T02:25:50;9.50;99.90
17954;DHT22;9102;53.548;9.926;2022-09-20T02:28:28;9.50;99.90
17954;DHT22;9102;53.548;9.926;2022-09-20T02:31:08;9.50;99.90
17954;DHT22;9102;53.548;9.926;2022-09-20T02:36:39;9.50;99.90
17954;DHT22;9102;53.548;9.926;2022-09-20T02:39:11;9.50;99.90
17954;DHT22;9102;53.548;9.926;2022-09-20T02:41:58;9.50;99.90
17954;DHT22;9102;53.548;9.926;2022-09-20T02:44:47;9.50;99.90
17954;DHT22;9102;53.548;9.926;2022-09-20T02:47:29;9.50;99.90
17954;DHT22;9102;53.548;9.926;2022-09-20T02:50:07;9.50;99.90
17954;DHT22;9102;53.548;9.926;2022-09-20T02:52:43;9.60;99.90
17954;DHT22;9102;53.548;9.926;2022-09-20T02:55:17;9.70;99.90
17954;DHT22;9102;53.548;9.926;2022-09-20T02:57:51;9.70;99.90
17954;DHT22;9102;53.548;9.926;2022-09-20T03:00:22;9.50;99.90
17954;DHT22;9102;53.548;9.926;2022-09-20T03:03:02;9.60;99.90
17954;DHT22;9102;53.548;9.926;2022-09-20T03:05:36;9.50;99.90
17954;DHT22;9102;53.548;9.926;2022-09-20T03:08:19;9.50;99.90
17954;DHT22;9102;53.548;9.926;2022-09-20T03:10:53;9.50;99.90
17954;DHT22;9102;53.548;9.926;2022-09-20T03:13:31;9.50;99.90
17954;DHT22;9102;53.548;9.926;2022-09-20T03:16:11;9.50;99.90
17954;DHT22;9102;53.548;9.926;2022-09-20T03:18:47;9.40;99.90
17954;DHT22;9102;53.548;9.926;2022-09-20T03:21:28;9.50;99.90
17954;DHT22;9102;53.548;9.926;2022-09-20T03:24:05;9.40;99.90
17954;DHT22;9102;53.548;9.926;2022-09-20T03:26:44;9.40;99.90
17954;DHT22;9102;53.548;9.926;2022-09-20T03:29:21;9.30;99.90
17954;DHT22;9102;53.548;9.926;2022-09-20T03:32:02;9.30;99.90
17954;DHT22;9102;53.548;9.926;2022-09-20T03:34:42;9.30;99.90
17954;DHT22;9102;53.548;9.926;2022-09-20T03:37:22;9.30;99.90
17954;DHT22;9102;53.548;9.926;2022-09-20T03:40:11;9.30;99.90
17954;DHT22;9102;53.548;9.926;2022-09-20T03:42:48;9.20;99.90
17954;DHT22;9102;53.548;9.926;2022-09-20T03:48:31;9.10;99.90
17954;DHT22;9102;53.548;9.926;2022-09-20T03:51:15;9.10;99.90
17954;DHT22;9102;53.548;9.926;2022-09-20T03:54:17;9.10;99.90
17954;DHT22;9102;53.548;9.926;2022-09-20T03:57:01;9.20;99.90
17954;DHT22;9102;53.548;9.926;2022-09-20T04:02:51;9.20;99.90
17954;DHT22;9102;53.548;9.926;2022-09-20T04:05:25;9.10;99.90
17954;DHT22;9102;53.548;9.926;2022-09-20T04:08:05;9.10;99.90
17954;DHT22;9102;53.548;9.926;2022-09-20T04:10:44;9.10;99.90
17954;DHT22;9102;53.548;9.926;2022-09-20T04:13:25;9.10;99.90
17954;DHT22;9102;53.548;9.926;2022-09-20T04:18:52;9.20;99.90
17954;DHT22;9102;53.548;9.926;2022-09-20T04:21:26;9.20;99.90
17954;DHT22;9102;53.548;9.926;2022-09-20T04:24:02;9.10;99.90
17954;DHT22;9102;53.548;9.926;2022-09-20T04:26:31;9.10;99.90
17954;DHT22;9102;53.548;9.926;2022-09-20T04:29:16;9.10;99.90
17954;DHT22;9102;53.548;9.926;2022-09-20T04:31:47;9.10;99.90
17954;DHT22;9102;53.548;9.926;2022-09-20T04:34:21;9.10;99.90
17954;DHT22;9102;53.548;9.926;2022-09-20T04:37:21;9.20;99.90
17954;DHT22;9102;53.548;9.926;2022-09-20T04:39:56;9.10;99.90
17954;DHT22;9102;53.548;9.926;2022-09-20T04:52:31;9.20;99.90
17954;DHT22;9102;53.548;9.926;2022-09-20T04:55:36;9.10;99.90
17954;DHT22;9102;53.548;9.926;2022-09-20T04:58:35;9.10;99.90
17954;DHT22;9102;53.548;9.926;2022-09-20T05:04:56;9.20;99.90
17954;DHT22;9102;53.548;9.926;2022-09-20T05:08:05;9.20;99.90
17954;DHT22;9102;53.548;9.926;2022-09-20T05:11:11;9.20;99.90
17954;DHT22;9102;53.548;9.926;2022-09-20T05:14:05;9.20;99.90
17954;DHT22;9102;53.548;9.926;2022-09-20T05:16:48;9.20;99.90
17954;DHT22;9102;53.548;9.926;2022-09-20T05:19:26;9.20;99.90
17954;DHT22;9102;53.548;9.926;2022-09-20T05:22:15;9.20;99.90
17954;DHT22;9102;53.548;9.926;2022-09-20T05:25:18;9.20;99.90
17954;DHT22;9102;53.548;9.926;2022-09-20T05:27:55;9.20;99.90
17954;DHT22;9102;53.548;9.926;2022-09-20T05:30:30;9.20;99.90
17954;DHT22;9102;53.548;9.926;2022-09-20T05:33:09;9.30;99.90
17954;DHT22;9102;53.548;9.926;2022-09-20T05:35:46;9.30;99.90
17954;DHT22;9102;53.548;9.926;2022-09-20T05:38:22;9.40;99.90
17954;DHT22;9102;53.548;9.926;2022-09-20T05:41:05;9.40;99.90
17954;DHT22;9102;53.548;9.926;2022-09-20T05:43:41;9.30;99.90
17954;DHT22;9102;53.548;9.926;2022-09-20T05:46:16;9.40;99.90
17954;DHT22;9102;53.548;9.926;2022-09-20T05:48:54;9.40;99.90
17954;DHT22;9102;53.548;9.926;2022-09-20T05:51:34;9.50;99.90
17954;DHT22;9102;53.548;9.926;2022-09-20T05:54:23;9.50;99.90
17954;DHT22;9102;53.548;9.926;2022-09-20T05:56:57;9.40;99.90
17954;DHT22;9102;53.548;9.926;2022-09-20T05:59:36;9.50;99.90
17954;DHT22;9102;53.548;9.926;2022-09-20T06:02:17;9.50;99.90
17954;DHT22;9102;53.548;9.926;2022-09-20T06:04:53;9.50;99.90
17954;DHT22;9102;53.548;9.926;2022-09-20T06:07:31;9.50;99.90
17954;DHT22;9102;53.548;9.926;2022-09-20T06:10:17;9.60;99.90
17954;DHT22;9102;53.548;9.926;2022-09-20T06:12:54;9.70;99.90
17954;DHT22;9102;53.548;9.926;2022-09-20T06:15:33;9.60;99.90
17954;DHT22;9102;53.548;9.926;2022-09-20T06:18:13;9.60;99.90
17954;DHT22;9102;53.548;9.926;2022-09-20T06:20:49;9.60;99.90
17954;DHT22;9102;53.548;9.926;2022-09-20T06:23:18;9.60;99.90
17954;DHT22;9102;53.548;9.926;2022-09-20T06:25:48;9.70;99.90
17954;DHT22;9102;53.548;9.926;2022-09-20T06:28:19;9.70;99.90
17954;DHT22;9102;53.548;9.926;2022-09-20T06:30:49;9.80;99.90
17954;DHT22;9102;53.548;9.926;2022-09-20T06:33:17;9.90;99.90
17954;DHT22;9102;53.548;9.926;2022-09-20T06:35:48;10.00;99.90
17954;DHT22;9102;53.548;9.926;2022-09-20T06:38:33;10.00;99.90
17954;DHT22;9102;53.548;9.926;2022-09-20T06:41:20;10.10;99.90
17954;DHT22;9102;53.548;9.926;2022-09-20T06:43:55;10.20;99.90
17954;DHT22;9102;53.548;9.926;2022-09-20T06:46:26;10.20;99.90
17954;DHT22;9102;53.548;9.926;2022-09-20T06:48:53;10.30;99.90
17954;DHT22;9102;53.548;9.926;2022-09-20T06:51:20;10.40;99.90
17954;DHT22;9102;53.548;9.926;2022-09-20T06:53:48;10.50;99.90
17954;DHT22;9102;53.548;9.926;2022-09-20T06:56:17;10.70;99.90
17954;DHT22;9102;53.548;9.926;2022-09-20T06:58:45;10.60;99.90
17954;DHT22;9102;53.548;9.926;2022-09-20T07:01:11;10.70;99.90
17954;DHT22;9102;53.548;9.926;2022-09-20T07:03:40;10.80;99.90
17954;DHT22;9102;53.548;9.926;2022-09-20T07:06:07;10.80;99.90
17954;DHT22;9102;53.548;9.926;2022-09-20T07:08:34;10.90;99.90
17954;DHT22;9102;53.548;9.926;2022-09-20T07:11:03;11.00;99.90
17954;DHT22;9102;53.548;9.926;2022-09-20T07:13:30;11.00;99.90
17954;DHT22;9102;53.548;9.926;2022-09-20T07:15:59;11.10;99.90
17954;DHT22;9102;53.548;9.926;2022-09-20T07:18:28;11.20;99.90
17954;DHT22;9102;53.548;9.926;2022-09-20T07:20:57;11.20;99.90
17954;DHT22;9102;53.548;9.926;2022-09-20T07:23:24;11.30;99.90
17954;DHT22;9102;53.548;9.926;2022-09-20T07:25:51;11.30;99.90
17954;DHT22;9102;53.548;9.926;2022-09-20T07:28:18;11.30;99.90
17954;DHT22;9102;53.548;9.926;2022-09-20T07:30:45;11.40;99.90
17954;DHT22;9102;53.548;9.926;2022-09-20T07:33:12;11.50;99.90
17954;DHT22;9102;53.548;9.926;2022-09-20T07:35:44;11.50;99.90
17954;DHT22;9102;53.548;9.926;2022-09-20T07:38:12;11.60;99.90
17954;DHT22;9102;53.548;9.926;2022-09-20T07:40:39;11.70;99.90
17954;DHT22;9102;53.548;9.926;2022-09-20T07:43:06;11.80;99.90
17954;DHT22;9102;53.548;9.926;2022-09-20T07:45:35;11.90;99.90
17954;DHT22;9102;53.548;9.926;2022-09-20T07:48:10;11.90;99.90
17954;DHT22;9102;53.548;9.926;2022-09-20T07:50:39;11.90;99.90
17954;DHT22;9102;53.548;9.926;2022-09-20T07:53:06;11.90;99.90
17954;DHT22;9102;53.548;9.926;2022-09-20T07:55:41;12.00;99.90
17954;DHT22;9102;53.548;9.926;2022-09-20T07:58:08;12.00;99.90
17954;DHT22;9102;53.548;9.926;2022-09-20T08:00:35;12.00;99.90
17954;DHT22;9102;53.548;9.926;2022-09-20T08:03:02;12.10;99.90
17954;DHT22;9102;53.548;9.926;2022-09-20T08:05:30;12.10;99.90
17954;DHT22;9102;53.548;9.926;2022-09-20T08:07:57;12.20;99.90
17954;DHT22;9102;53.548;9.926;2022-09-20T08:10:25;12.30;99.90
17954;DHT22;9102;53.548;9.926;2022-09-20T08:12:54;12.30;99.90
17954;DHT22;9102;53.548;9.926;2022-09-20T08:15:21;12.40;99.90
17954;DHT22;9102;53.548;9.926;2022-09-20T08:17:49;12.60;99.90
17954;DHT22;9102;53.548;9.926;2022-09-20T08:20:16;12.60;99.90
17954;DHT22;9102;53.548;9.926;2022-09-20T08:22:44;12.50;99.90
17954;DHT22;9102;53.548;9.926;2022-09-20T08:25:11;12.70;99.90
17954;DHT22;9102;53.548;9.926;2022-09-20T08:27:37;12.70;99.90
17954;DHT22;9102;53.548;9.926;2022-09-20T08:30:07;12.80;99.90
17954;DHT22;9102;53.548;9.926;2022-09-20T08:32:36;12.80;99.90
17954;DHT22;9102;53.548;9.926;2022-09-20T08:35:04;12.80;99.90
17954;DHT22;9102;53.548;9.926;2022-09-20T08:37:31;12.80;99.90
17954;DHT22;9102;53.548;9.926;2022-09-20T08:39:59;12.90;99.90
17954;DHT22;9102;53.548;9.926;2022-09-20T08:42:29;13.00;99.90
17954;DHT22;9102;53.548;9.926;2022-09-20T08:44:57;13.10;99.90
17954;DHT22;9102;53.548;9.926;2022-09-20T08:47:28;13.20;99.90
17954;DHT22;9102;53.548;9.926;2022-09-20T08:49:57;13.20;99.90
17954;DHT22;9102;53.548;9.926;2022-09-20T08:52:27;13.20;99.90
17954;DHT22;9102;53.548;9.926;2022-09-20T08:54:56;13.30;99.90
17954;DHT22;9102;53.548;9.926;2022-09-20T08:57:26;13.40;99.90
17954;DHT22;9102;53.548;9.926;2022-09-20T08:59:57;13.60;99.90
17954;DHT22;9102;53.548;9.926;2022-09-20T09:02:29;13.80;99.90
17954;DHT22;9102;53.548;9.926;2022-09-20T09:04:56;13.80;99.90
17954;DHT22;9102;53.548;9.926;2022-09-20T09:07:24;13.90;99.90
17954;DHT22;9102;53.548;9.926;2022-09-20T09:10:05;13.90;99.90
17954;DHT22;9102;53.548;9.926;2022-09-20T09:12:34;13.80;99.90
17954;DHT22;9102;53.548;9.926;2022-09-20T09:15:08;13.70;99.90
17954;DHT22;9102;53.548;9.926;2022-09-20T09:17:45;13.70;99.90
17954;DHT22;9102;53.548;9.926;2022-09-20T09:20:16;13.90;99.90
17954;DHT22;9102;53.548;9.926;2022-09-20T09:22:46;14.10;99.90
17954;DHT22;9102;53.548;9.926;2022-09-20T09:25:24;14.20;99.90
17954;DHT22;9102;53.548;9.926;2022-09-20T09:28:01;14.30;99.90
17954;DHT22;9102;53.548;9.926;2022-09-20T09:30:31;14.40;99.90
17954;DHT22;9102;53.548;9.926;2022-09-20T09:33:21;14.70;99.90
17954;DHT22;9102;53.548;9.926;2022-09-20T09:36:03;14.90;99.90
17954;DHT22;9102;53.548;9.926;2022-09-20T09:38:32;14.60;99.90
17954;DHT22;9102;53.548;9.926;2022-09-20T09:41:02;14.30;99.90
17954;DHT22;9102;53.548;9.926;2022-09-20T09:43:31;14.20;99.90
17954;DHT22;9102;53.548;9.926;2022-09-20T09:46:18;14.00;99.90
17954;DHT22;9102;53.548;9.926;2022-09-20T09:49:04;14.10;99.90
17954;DHT22;9102;53.548;9.926;2022-09-20T09:51:33;14.30;99.90
17954;DHT22;9102;53.548;9.926;2022-09-20T09:54:01;14.60;99.90
17954;DHT22;9102;53.548;9.926;2022-09-20T09:56:40;14.80;99.90
17954;DHT22;9102;53.548;9.926;2022-09-20T09:59:36;15.00;99.90
17954;DHT22;9102;53.548;9.926;2022-09-20T10:02:24;15.00;99.90
17954;DHT22;9102;53.548;9.926;2022-09-20T10:05:04;15.10;99.90
17954;DHT22;9102;53.548;9.926;2022-09-20T10:07:43;15.00;99.90
17954;DHT22;9102;53.548;9.926;2022-09-20T10:10:28;15.00;99.90
17954;DHT22;9102;53.548;9.926;2022-09-20T10:13:06;14.80;99.90
17954;DHT22;9102;53.548;9.926;2022-09-20T10:15:40;14.70;99.90
17954;DHT22;9102;53.548;9.926;2022-09-20T10:18:30;14.80;99.90
17954;DHT22;9102;53.548;9.926;2022-09-20T10:21:10;14.90;99.90
17954;DHT22;9102;53.548;9.926;2022-09-20T10:23:51;14.70;99.90
17954;DHT22;9102;53.548;9.926;2022-09-20T10:26:47;14.60;99.90
17954;DHT22;9102;53.548;9.926;2022-09-20T10:29:29;14.40;99.90
17954;DHT22;9102;53.548;9.926;2022-09-20T10:32:03;14.20;99.90
17954;DHT22;9102;53.548;9.926;2022-09-20T10:37:43;14.10;99.90
17954;DHT22;9102;53.548;9.926;2022-09-20T10:40:24;14.10;99.90
17954;DHT22;9102;53.548;9.926;2022-09-20T10:43:27;14.10;99.90
17954;DHT22;9102;53.548;9.926;2022-09-20T10:46:04;14.20;99.90
17954;DHT22;9102;53.548;9.926;2022-09-20T10:48:40;14.50;99.90
17954;DHT22;9102;53.548;9.926;2022-09-20T10:51:13;15.10;99.90
17954;DHT22;9102;53.548;9.926;2022-09-20T10:53:50;15.40;99.90
17954;DHT22;9102;53.548;9.926;2022-09-20T10:56:27;15.50;99.90
17954;DHT22;9102;53.548;9.926;2022-09-20T10:59:11;15.70;99.90
17954;DHT22;9102;53.548;9.926;2022-09-20T11:01:48;15.70;99.90
17954;DHT22;9102;53.548;9.926;2022-09-20T11:04:46;16.10;99.90
17954;DHT22;9102;53.548;9.926;2022-09-20T11:07:17;16.60;99.90
17954;DHT22;9102;53.548;9.926;2022-09-20T11:09:49;16.70;99.90
17954;DHT22;9102;53.548;9.926;2022-09-20T11:12:23;16.90;99.90
17954;DHT22;9102;53.548;9.926;2022-09-20T11:14:54;17.10;99.90
17954;DHT22;9102;53.548;9.926;2022-09-20T11:17:25;16.90;99.90
17954;DHT22;9102;53.548;9.926;2022-09-20T11:19:56;16.40;99.90
17954;DHT22;9102;53.548;9.926;2022-09-20T11:22:30;16.00;99.90
17954;DHT22;9102;53.548;9.926;2022-09-20T11:25:04;15.40;99.90
17954;DHT22;9102;53.548;9.926;2022-09-20T11:27:35;15.30;99.90
17954;DHT22;9102;53.548;9.926;2022-09-20T11:30:05;15.30;99.90
17954;DHT22;9102;53.548;9.926;2022-09-20T11:32:36;15.30;99.90
17954;DHT22;9102;53.548;9.926;2022-09-20T11:35:18;15.40;99.90
17954;DHT22;9102;53.548;9.926;2022-09-20T11:37:49;15.40;99.90
17954;DHT22;9102;53.548;9.926;2022-09-20T11:40:25;15.50;99.90
17954;DHT22;9102;53.548;9.926;2022-09-20T11:42:54;15.50;99.90
17954;DHT22;9102;53.548;9.926;2022-09-20T11:45:22;15.60;99.90
17954;DHT22;9102;53.548;9.926;2022-09-20T11:47:53;15.60;99.90
17954;DHT22;9102;53.548;9.926;2022-09-20T11:51:02;15.60;99.90
17954;DHT22;9102;53.548;9.926;2022-09-20T11:53:41;15.70;99.90
17954;DHT22;9102;53.548;9.926;2022-09-20T11:56:17;15.90;99.90
17954;DHT22;9102;53.548;9.926;2022-09-20T11:58:46;16.00;99.90
17954;DHT22;9102;53.548;9.926;2022-09-20T12:01:19;16.00;99.90
17954;DHT22;9102;53.548;9.926;2022-09-20T12:03:52;16.10;99.90
17954;DHT22;9102;53.548;9.926;2022-09-20T12:06:26;16.30;99.90
17954;DHT22;9102;53.548;9.926;2022-09-20T12:08:55;16.50;99.90
17954;DHT22;9102;53.548;9.926;2022-09-20T12:11:30;16.90;99.90
17954;DHT22;9102;53.548;9.926;2022-09-20T12:14:02;17.10;99.90
17954;DHT22;9102;53.548;9.926;2022-09-20T12:16:39;17.30;99.90
17954;DHT22;9102;53.548;9.926;2022-09-20T12:19:09;17.40;99.90
17954;DHT22;9102;53.548;9.926;2022-09-20T12:25:34;16.80;99.90
17954;DHT22;9102;53.548;9.926;2022-09-20T12:28:03;16.90;99.90
17954;DHT22;9102;53.548;9.926;2022-09-20T12:30:30;16.90;99.90
17954;DHT22;9102;53.548;9.926;2022-09-20T12:32:58;16.60;99.90
17954;DHT22;9102;53.548;9.926;2022-09-20T12:35:57;16.70;99.90
17954;DHT22;9102;53.548;9.926;2022-09-20T12:38:37;16.40;99.90
17954;DHT22;9102;53.548;9.926;2022-09-20T12:41:13;16.10;99.90
17954;DHT22;9102;53.548;9.926;2022-09-20T12:43:52;15.80;99.90
17954;DHT22;9102;53.548;9.926;2022-09-20T12:46:23;15.70;99.90
17954;DHT22;9102;53.548;9.926;2022-09-20T12:49:11;15.70;99.90
17954;DHT22;9102;53.548;9.926;2022-09-20T12:52:04;15.80;99.90
17954;DHT22;9102;53.548;9.926;2022-09-20T12:54:50;15.90;99.90
17954;DHT22;9102;53.548;9.926;2022-09-20T12:57:26;16.10;99.90
17954;DHT22;9102;53.548;9.926;2022-09-20T12:59:59;15.90;99.90
17954;DHT22;9102;53.548;9.926;2022-09-20T13:02:58;15.70;99.90
17954;DHT22;9102;53.548;9.926;2022-09-20T13:05:36;15.50;99.90
17954;DHT22;9102;53.548;9.926;2022-09-20T13:08:14;15.50;99.90
17954;DHT22;9102;53.548;9.926;2022-09-20T13:10:46;15.30;99.90
17954;DHT22;9102;53.548;9.926;2022-09-20T13:13:29;15.20;99.90
17954;DHT22;9102;53.548;9.926;2022-09-20T13:15:59;15.30;99.90
17954;DHT22;9102;53.548;9.926;2022-09-20T13:18:30;15.30;99.90
17954;DHT22;9102;53.548;9.926;2022-09-20T13:20:57;15.40;99.90
17954;DHT22;9102;53.548;9.926;2022-09-20T13:23:28;15.40;99.90
17954;DHT22;9102;53.548;9.926;2022-09-20T13:25:58;15.60;99.90
17954;DHT22;9102;53.548;9.926;2022-09-20T13:28:34;15.60;99.90
17954;DHT22;9102;53.548;9.926;2022-09-20T13:31:25;15.90;99.90
17954;DHT22;9102;53.548;9.926;2022-09-20T13:33:52;16.10;99.90
17954;DHT22;9102;53.548;9.926;2022-09-20T13:36:25;16.20;99.90
17954;DHT22;9102;53.548;9.926;2022-09-20T13:38:55;16.40;99.90
17954;DHT22;9102;53.548;9.926;2022-09-20T13:41:22;16.40;99.90
17954;DHT22;9102;53.548;9.926;2022-09-20T13:43:52;16.60;99.90
17954;DHT22;9102;53.548;9.926;2022-09-20T13:46:23;16.70;99.90
17954;DHT22;9102;53.548;9.926;2022-09-20T13:48:58;16.80;99.90
17954;DHT22;9102;53.548;9.926;2022-09-20T13:51:35;17.00;99.90
17954;DHT22;9102;53.548;9.926;2022-09-20T13:54:17;17.10;99.90
17954;DHT22;9102;53.548;9.926;2022-09-20T13:56:44;16.80;99.90
17954;DHT22;9102;53.548;9.926;2022-09-20T13:59:12;16.50;99.90
17954;DHT22;9102;53.548;9.926;2022-09-20T14:01:48;16.50;99.90
17954;DHT22;9102;53.548;9.926;2022-09-20T14:04:20;16.30;99.90
17954;DHT22;9102;53.548;9.926;2022-09-20T14:06:48;16.10;99.90
17954;DHT22;9102;53.548;9.926;2022-09-20T14:09:19;16.00;99.90
17954;DHT22;9102;53.548;9.926;2022-09-20T14:11:47;15.90;99.90
17954;DHT22;9102;53.548;9.926;2022-09-20T14:14:14;15.80;99.90
17954;DHT22;9102;53.548;9.926;2022-09-20T14:16:44;15.70;99.90
17954;DHT22;9102;53.548;9.926;2022-09-20T14:19:15;15.70;99.90
17954;DHT22;9102;53.548;9.926;2022-09-20T14:21:43;15.80;99.90
17954;DHT22;9102;53.548;9.926;2022-09-20T14:24:26;15.80;99.90
17954;DHT22;9102;53.548;9.926;2022-09-20T14:27:14;15.90;99.90
17954;DHT22;9102;53.548;9.926;2022-09-20T14:29:42;15.90;99.90
17954;DHT22;9102;53.548;9.926;2022-09-20T14:32:22;15.90;99.90
17954;DHT22;9102;53.548;9.926;2022-09-20T14:34:58;15.90;99.90
17954;DHT22;9102;53.548;9.926;2022-09-20T14:37:28;15.90;99.90
17954;DHT22;9102;53.548;9.926;2022-09-20T14:39:57;16.00;99.90
17954;DHT22;9102;53.548;9.926;2022-09-20T14:42:28;15.90;99.90
17954;DHT22;9102;53.548;9.926;2022-09-20T14:44:55;15.90;99.90
17954;DHT22;9102;53.548;9.926;2022-09-20T14:47:26;15.90;99.90
17954;DHT22;9102;53.548;9.926;2022-09-20T14:49:54;16.00;99.90
17954;DHT22;9102;53.548;9.926;2022-09-20T14:52:36;15.90;99.90
17954;DHT22;9102;53.548;9.926;2022-09-20T14:55:17;15.90;99.90
17954;DHT22;9102;53.548;9.926;2022-09-20T14:57:46;16.00;99.90
17954;DHT22;9102;53.548;9.926;2022-09-20T15:00:15;16.00;99.90
17954;DHT22;9102;53.548;9.926;2022-09-20T15:02:45;15.80;99.90
17954;DHT22;9102;53.548;9.926;2022-09-20T15:05:17;15.80;99.90
17954;DHT22;9102;53.548;9.926;2022-09-20T15:07:46;15.70;99.90
17954;DHT22;9102;53.548;9.926;2022-09-20T15:10:13;15.60;99.90
17954;DHT22;9102;53.548;9.926;2022-09-20T15:12:40;15.60;99.90
17954;DHT22;9102;53.548;9.926;2022-09-20T15:15:11;15.60;99.90
17954;DHT22;9102;53.548;9.926;2022-09-20T15:17:40;15.60;99.90
17954;DHT22;9102;53.548;9.926;2022-09-20T15:20:14;15.60;99.90
17954;DHT22;9102;53.548;9.926;2022-09-20T15:22:42;15.60;99.90
17954;DHT22;9102;53.548;9.926;2022-09-20T15:25:12;15.50;99.90
17954;DHT22;9102;53.548;9.926;2022-09-20T15:27:41;15.40;99.90
17954;DHT22;9102;53.548;9.926;2022-09-20T15:30:10;15.40;99.90
17954;DHT22;9102;53.548;9.926;2022-09-20T15:32:37;15.30;99.90
17954;DHT22;9102;53.548;9.926;2022-09-20T15:35:05;15.40;99.90
17954;DHT22;9102;53.548;9.926;2022-09-20T15:37:34;15.40;99.90
17954;DHT22;9102;53.548;9.926;2022-09-20T15:40:01;15.60;99.90
17954;DHT22;9102;53.548;9.926;2022-09-20T15:42:28;15.90;99.90
17954;DHT22;9102;53.548;9.926;2022-09-20T15:44:55;15.90;99.90
17954;DHT22;9102;53.548;9.926;2022-09-20T15:47:22;15.70;99.90
17954;DHT22;9102;53.548;9.926;2022-09-20T15:49:49;15.60;99.90
17954;DHT22;9102;53.548;9.926;2022-09-20T15:52:17;15.50;99.90
17954;DHT22;9102;53.548;9.926;2022-09-20T15:54:51;15.40;99.90
17954;DHT22;9102;53.548;9.926;2022-09-20T15:57:18;15.40;99.90
17954;DHT22;9102;53.548;9.926;2022-09-20T15:59:45;15.40;99.90
17954;DHT22;9102;53.548;9.926;2022-09-20T16:02:12;15.50;99.90
17954;DHT22;9102;53.548;9.926;2022-09-20T16:04:39;15.40;99.90
17954;DHT22;9102;53.548;9.926;2022-09-20T16:07:06;15.50;99.90
17954;DHT22;9102;53.548;9.926;2022-09-20T16:09:34;15.40;99.90
17954;DHT22;9102;53.548;9.926;2022-09-20T16:12:04;15.40;99.90
17954;DHT22;9102;53.548;9.926;2022-09-20T16:14:31;15.30;99.90
17954;DHT22;9102;53.548;9.926;2022-09-20T16:16:57;15.30;99.90
17954;DHT22;9102;53.548;9.926;2022-09-20T16:19:24;15.20;99.90
17954;DHT22;9102;53.548;9.926;2022-09-20T16:21:52;15.20;99.90
17954;DHT22;9102;53.548;9.926;2022-09-20T16:24:21;15.10;99.90
17954;DHT22;9102;53.548;9.926;2022-09-20T16:26:48;15.10;99.90
17954;DHT22;9102;53.548;9.926;2022-09-20T16:29:17;15.00;99.90
17954;DHT22;9102;53.548;9.926;2022-09-20T16:31:46;15.00;99.90
17954;DHT22;9102;53.548;9.926;2022-09-20T16:34:16;15.00;99.90
17954;DHT22;9102;53.548;9.926;2022-09-20T16:36:44;15.00;99.90
17954;DHT22;9102;53.548;9.926;2022-09-20T16:39:12;14.90;99.90
17954;DHT22;9102;53.548;9.926;2022-09-20T16:41:39;14.90;99.90
17954;DHT22;9102;53.548;9.926;2022-09-20T16:44:07;14.80;99.90
17954;DHT22;9102;53.548;9.926;2022-09-20T16:46:35;14.70;99.90
17954;DHT22;9102;53.548;9.926;2022-09-20T16:49:03;14.60;99.90
17954;DHT22;9102;53.548;9.926;2022-09-20T16:51:32;14.50;99.90
17954;DHT22;9102;53.548;9.926;2022-09-20T16:54:04;14.50;99.90
17954;DHT22;9102;53.548;9.926;2022-09-20T16:56:33;14.40;99.90
17954;DHT22;9102;53.548;9.926;2022-09-20T16:59:00;14.30;99.90
17954;DHT22;9102;53.548;9.926;2022-09-20T17:01:28;14.40;99.90
17954;DHT22;9102;53.548;9.926;2022-09-20T17:07:19;14.30;99.90
17954;DHT22;9102;53.548;9.926;2022-09-20T17:09:48;14.20;99.90
17954;DHT22;9102;53.548;9.926;2022-09-20T17:12:15;14.20;99.90
17954;DHT22;9102;53.548;9.926;2022-09-20T17:14:46;14.10;99.90
17954;DHT22;9102;53.548;9.926;2022-09-20T17:17:13;14.10;99.90
17954;DHT22;9102;53.548;9.926;2022-09-20T17:19:39;14.10;99.90
17954;DHT22;9102;53.548;9.926;2022-09-20T17:22:06;14.00;99.90